Terminal Aerodrome Forecast
Issued by NWS Grand Forks, ND

Home | Current Version | Previous Version | Graphics & Text | Print | Product List | Glossary On
Versions: 1 2 3 4 5 6 7 8 9 10 11 12 13 14 15
000
FTUS43 KFGF 012300
TAFGFK
TAF
KGFK 012336Z 0200/0224 29008KT P6SM SCT040
     FM020400 25006KT P6SM SKC
     FM021300 18010KT P6SM SKC
     FM021700 17020G30KT P6SM SCT250
     FM022200 17023G32KT P6SM BKN080=

USA.gov is the U.S. government's official web portal to all federal, state and local government web resources and services.